Fairbanks, AK (99711)

3:13 PM AKST on February 05, 2016 (GMT -0900)
Lakloey Hill | | Change Station
CLOSE
Current Station
Personal Weather Station
Location: North Pole, AK
Elevation: 630 ft
Nearby Weather Stations

Elev 630 ft 64.83 °N, 147.52 °W | Updated 3 minutes ago

Scattered Clouds
Scattered Clouds
18.7 °F
Feels Like 19 °F
N
0.0
Wind Variable Wind from NE

Today
High -- | Low -- °F
--% Chance of Precip.
Yesterday
High -- | Low -- °F
Precip. -- in
Pressure 29.29 in
Visibility 9.0 miles
Clouds Few 5000 ft
Scattered Clouds 12000 ft
Windchill 19 °F
Dew Point 10 °F
Humidity 69%
Rainfall 0.00 in
Snow Depth Not available.
9:23 AM 4:45 PM
Waning Crescent, 8% visible
METAR PAFB 052358Z 30003KT 9SM FEW050 SCT120 M09/M14 A2925 RMK AO2A SLP916 4/012 T10911142 11073 21183 52012 $
Pressure 29.29 in
Visibility 9.0 miles
Clouds Few 5000 ft
Scattered Clouds 12000 ft
Windchill 19 °F
Dew Point 10 °F
Humidity 69%
Rainfall 0.00 in
Snow Depth Not available.
9:23 AM 4:45 PM
Waning Crescent, 8% visible
METAR PAFB 052358Z 30003KT 9SM FEW050 SCT120 M09/M14 A2925 RMK AO2A SLP916 4/012 T10911142 11073 21183 52012 $

10-Day Weather Forecast

Almanac

Astronomy

Feb. 05, 2016 Rise Set
Actual Time
Civil Twilight
Nautical Twilight
Astronomical Twilight
Moon
Length of Visible Light
Length of Day
Tomorrow will be .
, % of the Moon is Illuminated

Today's Extremes

State Highs State Lows

Community

WunderPhotos

Upload Photos

1,890,893 photos uploaded!

WunderBlog® & News

Nearby

Air Quality

  Air Quality AQ Index Pollutant
Not available.

Snow Depth

Station Depth Elevation

Earthquake Activity

City Distance Mag. Time & Date
Minimum magnitude displayed is 2.5.

Coastal Water Temperatures

Place Temperature

Stations

Nearby Weather Stations

Station Location Temp. Windchill Dew Point Humidity Wind Precip. Elev Updated Type
                   

Watches & Warnings

There are currently no watches in effect.